sensor_id;sensor_type;location;lat;lon;timestamp;temperature;humidity
75683;HTU21D;64295;44.772;39.872;2024-01-10T00:02:25;-6.90;69.57
75683;HTU21D;64295;44.772;39.872;2024-01-10T00:04:51;-6.86;69.48
75683;HTU21D;64295;44.772;39.872;2024-01-10T00:07:17;-6.78;69.29
75683;HTU21D;64295;44.772;39.872;2024-01-10T00:09:43;-6.82;69.33
75683;HTU21D;64295;44.772;39.872;2024-01-10T00:12:11;-6.76;69.37
75683;HTU21D;64295;44.772;39.872;2024-01-10T00:14:37;-6.75;69.29
75683;HTU21D;64295;44.772;39.872;2024-01-10T00:17:03;-6.78;69.29
75683;HTU21D;64295;44.772;39.872;2024-01-10T00:19:29;-6.74;69.40
75683;HTU21D;64295;44.772;39.872;2024-01-10T00:21:55;-6.73;69.23
75683;HTU21D;64295;44.772;39.872;2024-01-10T00:24:21;-6.71;69.26
75683;HTU21D;64295;44.772;39.872;2024-01-10T00:26:46;-6.66;69.33
75683;HTU21D;64295;44.772;39.872;2024-01-10T00:29:12;-6.65;69.20
75683;HTU21D;64295;44.772;39.872;2024-01-10T00:31:39;-6.59;69.31
75683;HTU21D;64295;44.772;39.872;2024-01-10T00:34:05;-6.51;69.29
75683;HTU21D;64295;44.772;39.872;2024-01-10T00:36:31;-6.44;69.13
75683;HTU21D;64295;44.772;39.872;2024-01-10T00:38:57;-6.38;69.12
75683;HTU21D;64295;44.772;39.872;2024-01-10T00:41:23;-6.37;68.99
75683;HTU21D;64295;44.772;39.872;2024-01-10T00:43:49;-6.37;69.07
75683;HTU21D;64295;44.772;39.872;2024-01-10T00:46:14;-6.41;69.10
75683;HTU21D;64295;44.772;39.872;2024-01-10T00:48:40;-6.48;69.20
75683;HTU21D;64295;44.772;39.872;2024-01-10T00:51:06;-6.43;69.39
75683;HTU21D;64295;44.772;39.872;2024-01-10T00:53:34;-6.36;69.26
75683;HTU21D;64295;44.772;39.872;2024-01-10T00:56:02;-6.32;69.25
75683;HTU21D;64295;44.772;39.872;2024-01-10T00:58:27;-6.34;69.05
75683;HTU21D;64295;44.772;39.872;2024-01-10T01:00:55;-6.44;69.20
75683;HTU21D;64295;44.772;39.872;2024-01-10T01:03:21;-6.51;69.39
75683;HTU21D;64295;44.772;39.872;2024-01-10T01:06:19;-6.55;69.50
75683;HTU21D;64295;44.772;39.872;2024-01-10T01:08:45;-6.66;69.49
75683;HTU21D;64295;44.772;39.872;2024-01-10T01:11:11;-6.77;69.75
75683;HTU21D;64295;44.772;39.872;2024-01-10T01:13:39;-6.73;69.93
75683;HTU21D;64295;44.772;39.872;2024-01-10T01:16:09;-6.66;69.86
75683;HTU21D;64295;44.772;39.872;2024-01-10T01:19:05;-6.59;69.67
75683;HTU21D;64295;44.772;39.872;2024-01-10T01:21:54;-6.56;69.54
75683;HTU21D;64295;44.772;39.872;2024-01-10T01:24:20;-6.51;69.49
75683;HTU21D;64295;44.772;39.872;2024-01-10T01:26:46;-6.46;69.40
75683;HTU21D;64295;44.772;39.872;2024-01-10T01:29:33;-6.44;69.36
75683;HTU21D;64295;44.772;39.872;2024-01-10T01:31:59;-6.49;69.25
75683;HTU21D;64295;44.772;39.872;2024-01-10T01:34:25;-6.51;69.42
75683;HTU21D;64295;44.772;39.872;2024-01-10T01:36:51;-6.45;69.38
75683;HTU21D;64295;44.772;39.872;2024-01-10T01:39:18;-6.46;69.29
75683;HTU21D;64295;44.772;39.872;2024-01-10T01:41:44;-6.43;69.38
75683;HTU21D;64295;44.772;39.872;2024-01-10T01:44:10;-6.39;69.22
75683;HTU21D;64295;44.772;39.872;2024-01-10T01:46:35;-6.42;69.23
75683;HTU21D;64295;44.772;39.872;2024-01-10T01:49:02;-6.39;69.16
75683;HTU21D;64295;44.772;39.872;2024-01-10T01:51:30;-6.46;69.16
75683;HTU21D;64295;44.772;39.872;2024-01-10T01:53:57;-6.61;69.34
75683;HTU21D;64295;44.772;39.872;2024-01-10T01:56:23;-6.66;69.55
75683;HTU21D;64295;44.772;39.872;2024-01-10T01:58:50;-6.71;69.74
75683;HTU21D;64295;44.772;39.872;2024-01-10T02:01:17;-6.65;69.71
75683;HTU21D;64295;44.772;39.872;2024-01-10T02:03:47;-6.55;69.61
75683;HTU21D;64295;44.772;39.872;2024-01-10T02:06:13;-6.52;69.55
75683;HTU21D;64295;44.772;39.872;2024-01-10T02:08:39;-6.45;69.54
75683;HTU21D;64295;44.772;39.872;2024-01-10T02:11:05;-6.39;69.41
75683;HTU21D;64295;44.772;39.872;2024-01-10T02:13:31;-6.33;69.37
75683;HTU21D;64295;44.772;39.872;2024-01-10T02:16:07;-6.23;69.29
75683;HTU21D;64295;44.772;39.872;2024-01-10T02:18:38;-6.17;69.16
75683;HTU21D;64295;44.772;39.872;2024-01-10T02:21:04;-6.12;69.13
75683;HTU21D;64295;44.772;39.872;2024-01-10T02:23:33;-6.06;69.03
75683;HTU21D;64295;44.772;39.872;2024-01-10T02:26:03;-6.06;69.00
75683;HTU21D;64295;44.772;39.872;2024-01-10T02:28:31;-6.05;69.04
75683;HTU21D;64295;44.772;39.872;2024-01-10T02:30:57;-6.09;69.09
75683;HTU21D;64295;44.772;39.872;2024-01-10T02:33:23;-6.13;69.13
75683;HTU21D;64295;44.772;39.872;2024-01-10T02:35:49;-6.12;69.20
75683;HTU21D;64295;44.772;39.872;2024-01-10T02:38:15;-6.12;69.19
75683;HTU21D;64295;44.772;39.872;2024-01-10T02:40:41;-6.13;69.18
75683;HTU21D;64295;44.772;39.872;2024-01-10T02:43:07;-6.17;69.30
75683;HTU21D;64295;44.772;39.872;2024-01-10T02:45:33;-6.15;69.30
75683;HTU21D;64295;44.772;39.872;2024-01-10T02:47:59;-6.14;69.26
75683;HTU21D;64295;44.772;39.872;2024-01-10T02:50:25;-6.13;69.25
75683;HTU21D;64295;44.772;39.872;2024-01-10T02:52:51;-6.12;69.25
75683;HTU21D;64295;44.772;39.872;2024-01-10T02:55:17;-6.11;69.23
75683;HTU21D;64295;44.772;39.872;2024-01-10T02:57:43;-6.07;69.20
75683;HTU21D;64295;44.772;39.872;2024-01-10T03:00:09;-6.06;69.15
75683;HTU21D;64295;44.772;39.872;2024-01-10T03:02:35;-6.06;69.13
75683;HTU21D;64295;44.772;39.872;2024-01-10T03:05:01;-6.05;69.17
75683;HTU21D;64295;44.772;39.872;2024-01-10T03:07:27;-6.06;69.12
75683;HTU21D;64295;44.772;39.872;2024-01-10T03:09:53;-6.08;69.18
75683;HTU21D;64295;44.772;39.872;2024-01-10T03:12:18;-6.06;69.20
75683;HTU21D;64295;44.772;39.872;2024-01-10T03:14:44;-6.07;69.13
75683;HTU21D;64295;44.772;39.872;2024-01-10T03:17:10;-6.09;69.23
75683;HTU21D;64295;44.772;39.872;2024-01-10T03:19:36;-6.12;69.25
75683;HTU21D;64295;44.772;39.872;2024-01-10T03:22:10;-6.11;69.34
75683;HTU21D;64295;44.772;39.872;2024-01-10T03:24:37;-6.13;69.29
75683;HTU21D;64295;44.772;39.872;2024-01-10T03:27:04;-6.14;69.36
75683;HTU21D;64295;44.772;39.872;2024-01-10T03:29:30;-6.12;69.31
75683;HTU21D;64295;44.772;39.872;2024-01-10T03:31:56;-6.14;69.34
75683;HTU21D;64295;44.772;39.872;2024-01-10T03:34:22;-6.13;69.33
75683;HTU21D;64295;44.772;39.872;2024-01-10T03:36:47;-6.13;69.31
75683;HTU21D;64295;44.772;39.872;2024-01-10T03:39:14;-6.15;69.29
75683;HTU21D;64295;44.772;39.872;2024-01-10T03:41:39;-6.18;69.38
75683;HTU21D;64295;44.772;39.872;2024-01-10T03:44:05;-6.19;69.32
75683;HTU21D;64295;44.772;39.872;2024-01-10T03:46:31;-6.23;69.42
75683;HTU21D;64295;44.772;39.872;2024-01-10T03:48:57;-6.26;69.42
75683;HTU21D;64295;44.772;39.872;2024-01-10T03:51:23;-6.34;69.32
75683;HTU21D;64295;44.772;39.872;2024-01-10T03:53:49;-6.50;69.58
75683;HTU21D;64295;44.772;39.872;2024-01-10T03:56:15;-6.55;69.69
75683;HTU21D;64295;44.772;39.872;2024-01-10T03:58:41;-6.61;69.78
75683;HTU21D;64295;44.772;39.872;2024-01-10T04:01:08;-6.60;69.74
75683;HTU21D;64295;44.772;39.872;2024-01-10T04:03:35;-6.56;69.86
75683;HTU21D;64295;44.772;39.872;2024-01-10T04:06:02;-6.47;69.63
75683;HTU21D;64295;44.772;39.872;2024-01-10T04:08:28;-6.49;69.49
75683;HTU21D;64295;44.772;39.872;2024-01-10T04:10:54;-6.49;69.63
75683;HTU21D;64295;44.772;39.872;2024-01-10T04:13:20;-6.51;69.50
75683;HTU21D;64295;44.772;39.872;2024-01-10T04:15:46;-6.58;69.59
75683;HTU21D;64295;44.772;39.872;2024-01-10T04:18:12;-6.60;69.71
75683;HTU21D;64295;44.772;39.872;2024-01-10T04:20:38;-6.56;69.62
75683;HTU21D;64295;44.772;39.872;2024-01-10T04:23:04;-6.49;69.61
75683;HTU21D;64295;44.772;39.872;2024-01-10T04:25:30;-6.48;69.49
75683;HTU21D;64295;44.772;39.872;2024-01-10T04:27:56;-6.41;69.50
75683;HTU21D;64295;44.772;39.872;2024-01-10T04:30:23;-6.36;69.33
75683;HTU21D;64295;44.772;39.872;2024-01-10T04:32:49;-6.39;69.29
75683;HTU21D;64295;44.772;39.872;2024-01-10T04:35:15;-6.43;69.45
75683;HTU21D;64295;44.772;39.872;2024-01-10T04:37:41;-6.42;69.45
75683;HTU21D;64295;44.772;39.872;2024-01-10T04:40:07;-6.38;69.47
75683;HTU21D;64295;44.772;39.872;2024-01-10T04:42:33;-6.34;69.43
75683;HTU21D;64295;44.772;39.872;2024-01-10T04:44:58;-6.26;69.33
75683;HTU21D;64295;44.772;39.872;2024-01-10T04:47:24;-6.21;69.19
75683;HTU21D;64295;44.772;39.872;2024-01-10T04:49:50;-6.36;69.10
75683;HTU21D;64295;44.772;39.872;2024-01-10T04:52:16;-6.71;69.34
75683;HTU21D;64295;44.772;39.872;2024-01-10T04:54:42;-6.82;70.00
75683;HTU21D;64295;44.772;39.872;2024-01-10T04:57:08;-6.88;69.81
75683;HTU21D;64295;44.772;39.872;2024-01-10T04:59:33;-6.89;70.04
75683;HTU21D;64295;44.772;39.872;2024-01-10T05:01:59;-6.93;69.73
75683;HTU21D;64295;44.772;39.872;2024-01-10T05:04:25;-7.01;69.95
75683;HTU21D;64295;44.772;39.872;2024-01-10T05:06:51;-6.96;69.78
75683;HTU21D;64295;44.772;39.872;2024-01-10T05:09:17;-7.05;69.74
75683;HTU21D;64295;44.772;39.872;2024-01-10T05:11:43;-7.19;69.94
75683;HTU21D;64295;44.772;39.872;2024-01-10T05:14:12;-7.20;69.99
75683;HTU21D;64295;44.772;39.872;2024-01-10T05:16:38;-7.37;69.87
75683;HTU21D;64295;44.772;39.872;2024-01-10T05:19:04;-7.49;70.23
75683;HTU21D;64295;44.772;39.872;2024-01-10T05:21:33;-7.50;70.23
75683;HTU21D;64295;44.772;39.872;2024-01-10T05:23:59;-7.56;70.13
75683;HTU21D;64295;44.772;39.872;2024-01-10T05:26:25;-7.63;70.15
75683;HTU21D;64295;44.772;39.872;2024-01-10T05:28:51;-7.75;70.21
75683;HTU21D;64295;44.772;39.872;2024-01-10T05:31:17;-7.38;70.22
75683;HTU21D;64295;44.772;39.872;2024-01-10T05:33:43;-7.34;69.50
75683;HTU21D;64295;44.772;39.872;2024-01-10T05:36:09;-7.46;69.58
75683;HTU21D;64295;44.772;39.872;2024-01-10T05:38:38;-7.52;69.59
75683;HTU21D;64295;44.772;39.872;2024-01-10T05:41:05;-7.70;69.74
75683;HTU21D;64295;44.772;39.872;2024-01-10T05:43:31;-7.91;69.97
75683;HTU21D;64295;44.772;39.872;2024-01-10T05:45:57;-7.95;70.08
75683;HTU21D;64295;44.772;39.872;2024-01-10T05:48:24;-8.04;70.14
75683;HTU21D;64295;44.772;39.872;2024-01-10T05:50:50;-8.03;70.06
75683;HTU21D;64295;44.772;39.872;2024-01-10T05:53:16;-8.09;70.07
75683;HTU21D;64295;44.772;39.872;2024-01-10T05:55:45;-8.04;70.07
75683;HTU21D;64295;44.772;39.872;2024-01-10T05:58:11;-7.99;69.87
75683;HTU21D;64295;44.772;39.872;2024-01-10T06:00:37;-7.96;69.85
75683;HTU21D;64295;44.772;39.872;2024-01-10T06:03:04;-8.00;69.75
75683;HTU21D;64295;44.772;39.872;2024-01-10T06:05:30;-8.09;69.72
75683;HTU21D;64295;44.772;39.872;2024-01-10T06:07:57;-8.26;69.77
75683;HTU21D;64295;44.772;39.872;2024-01-10T06:10:23;-8.44;69.87
75683;HTU21D;64295;44.772;39.872;2024-01-10T06:12:49;-8.54;70.07
75683;HTU21D;64295;44.772;39.872;2024-01-10T06:15:15;-8.57;70.08
75683;HTU21D;64295;44.772;39.872;2024-01-10T06:17:41;-8.63;70.06
75683;HTU21D;64295;44.772;39.872;2024-01-10T06:20:07;-8.58;70.26
75683;HTU21D;64295;44.772;39.872;2024-01-10T06:22:34;-8.38;70.03
75683;HTU21D;64295;44.772;39.872;2024-01-10T06:25:00;-8.19;69.62
75683;HTU21D;64295;44.772;39.872;2024-01-10T06:27:26;-8.16;69.36
75683;HTU21D;64295;44.772;39.872;2024-01-10T06:29:52;-8.11;69.48
75683;HTU21D;64295;44.772;39.872;2024-01-10T06:32:17;-7.87;69.37
75683;HTU21D;64295;44.772;39.872;2024-01-10T06:34:43;-7.70;68.94
75683;HTU21D;64295;44.772;39.872;2024-01-10T06:37:10;-7.81;68.74
75683;HTU21D;64295;44.772;39.872;2024-01-10T06:39:36;-7.92;69.08
75683;HTU21D;64295;44.772;39.872;2024-01-10T06:42:03;-7.87;69.28
75683;HTU21D;64295;44.772;39.872;2024-01-10T06:44:31;-7.74;69.23
75683;HTU21D;64295;44.772;39.872;2024-01-10T06:46:57;-7.63;68.80
75683;HTU21D;64295;44.772;39.872;2024-01-10T06:49:23;-7.74;68.96
75683;HTU21D;64295;44.772;39.872;2024-01-10T06:51:49;-7.77;69.11
75683;HTU21D;64295;44.772;39.872;2024-01-10T06:54:15;-7.67;69.10
75683;HTU21D;64295;44.772;39.872;2024-01-10T06:56:41;-7.67;68.92
75683;HTU21D;64295;44.772;39.872;2024-01-10T06:59:07;-7.74;68.99
75683;HTU21D;64295;44.772;39.872;2024-01-10T07:01:33;-7.67;69.16
75683;HTU21D;64295;44.772;39.872;2024-01-10T07:03:59;-7.54;69.03
75683;HTU21D;64295;44.772;39.872;2024-01-10T07:06:24;-7.39;68.87
75683;HTU21D;64295;44.772;39.872;2024-01-10T07:08:50;-7.25;68.72
75683;HTU21D;64295;44.772;39.872;2024-01-10T07:11:17;-7.12;68.58
75683;HTU21D;64295;44.772;39.872;2024-01-10T07:13:45;-6.92;68.51
75683;HTU21D;64295;44.772;39.872;2024-01-10T07:16:11;-6.81;68.30
75683;HTU21D;64295;44.772;39.872;2024-01-10T07:18:40;-6.76;68.26
75683;HTU21D;64295;44.772;39.872;2024-01-10T07:21:06;-6.74;68.57
75683;HTU21D;64295;44.772;39.872;2024-01-10T07:23:35;-6.41;68.29
75683;HTU21D;64295;44.772;39.872;2024-01-10T07:26:03;-6.24;67.97
75683;HTU21D;64295;44.772;39.872;2024-01-10T07:28:30;-6.37;68.12
75683;HTU21D;64295;44.772;39.872;2024-01-10T07:30:56;-6.46;68.38
75683;HTU21D;64295;44.772;39.872;2024-01-10T07:33:22;-6.49;68.45
75683;HTU21D;64295;44.772;39.872;2024-01-10T07:35:47;-6.58;68.74
75683;HTU21D;64295;44.772;39.872;2024-01-10T07:38:14;-6.68;68.76
75683;HTU21D;64295;44.772;39.872;2024-01-10T07:40:40;-6.83;68.88
75683;HTU21D;64295;44.772;39.872;2024-01-10T07:43:05;-6.94;69.05
75683;HTU21D;64295;44.772;39.872;2024-01-10T07:45:32;-6.94;69.31
75683;HTU21D;64295;44.772;39.872;2024-01-10T07:47:59;-6.90;68.99
75683;HTU21D;64295;44.772;39.872;2024-01-10T07:50:25;-7.03;69.05
75683;HTU21D;64295;44.772;39.872;2024-01-10T07:52:53;-7.19;69.10
75683;HTU21D;64295;44.772;39.872;2024-01-10T07:55:19;-7.36;69.41
75683;HTU21D;64295;44.772;39.872;2024-01-10T07:57:46;-7.42;69.38
75683;HTU21D;64295;44.772;39.872;2024-01-10T08:00:12;-7.20;69.52
75683;HTU21D;64295;44.772;39.872;2024-01-10T08:02:39;-6.90;69.03
75683;HTU21D;64295;44.772;39.872;2024-01-10T08:05:06;-6.85;68.54
75683;HTU21D;64295;44.772;39.872;2024-01-10T08:07:36;-6.79;68.65
75683;HTU21D;64295;44.772;39.872;2024-01-10T08:10:06;-6.62;68.49
75683;HTU21D;64295;44.772;39.872;2024-01-10T08:12:32;-6.39;68.21
75683;HTU21D;64295;44.772;39.872;2024-01-10T08:14:58;-6.20;68.16
75683;HTU21D;64295;44.772;39.872;2024-01-10T08:17:24;-5.89;67.65
75683;HTU21D;64295;44.772;39.872;2024-01-10T08:19:50;-5.74;67.51
75683;HTU21D;64295;44.772;39.872;2024-01-10T08:22:17;-5.44;67.32
75683;HTU21D;64295;44.772;39.872;2024-01-10T08:24:45;-5.31;66.79
75683;HTU21D;64295;44.772;39.872;2024-01-10T08:27:12;-5.30;67.01
75683;HTU21D;64295;44.772;39.872;2024-01-10T08:29:38;-5.31;67.09
75683;HTU21D;64295;44.772;39.872;2024-01-10T08:32:04;-5.17;67.11
75683;HTU21D;64295;44.772;39.872;2024-01-10T08:34:48;-5.24;67.07
75683;HTU21D;64295;44.772;39.872;2024-01-10T08:37:14;-5.31;67.34
75683;HTU21D;64295;44.772;39.872;2024-01-10T08:39:43;-4.90;67.42
75683;HTU21D;64295;44.772;39.872;2024-01-10T08:42:10;-4.68;66.80
75683;HTU21D;64295;44.772;39.872;2024-01-10T08:44:35;-4.67;66.78
75683;HTU21D;64295;44.772;39.872;2024-01-10T08:47:01;-4.56;66.80
75683;HTU21D;64295;44.772;39.872;2024-01-10T08:49:28;-4.36;66.71
75683;HTU21D;64295;44.772;39.872;2024-01-10T08:51:53;-4.66;66.62
75683;HTU21D;64295;44.772;39.872;2024-01-10T08:54:20;-4.29;67.26
75683;HTU21D;64295;44.772;39.872;2024-01-10T08:56:48;-4.26;66.74
75683;HTU21D;64295;44.772;39.872;2024-01-10T08:59:14;-4.28;67.01
75683;HTU21D;64295;44.772;39.872;2024-01-10T09:01:40;-4.13;66.63
75683;HTU21D;64295;44.772;39.872;2024-01-10T09:04:06;-4.20;66.87
75683;HTU21D;64295;44.772;39.872;2024-01-10T09:06:35;-4.16;66.88
75683;HTU21D;64295;44.772;39.872;2024-01-10T09:09:03;-4.25;67.26
75683;HTU21D;64295;44.772;39.872;2024-01-10T09:11:29;-4.09;67.15
75683;HTU21D;64295;44.772;39.872;2024-01-10T09:13:55;-3.93;66.91
75683;HTU21D;64295;44.772;39.872;2024-01-10T09:16:21;-3.91;66.88
75683;HTU21D;64295;44.772;39.872;2024-01-10T09:18:47;-3.84;66.90
75683;HTU21D;64295;44.772;39.872;2024-01-10T09:21:19;-3.67;66.69
75683;HTU21D;64295;44.772;39.872;2024-01-10T09:23:45;-3.66;66.60
75683;HTU21D;64295;44.772;39.872;2024-01-10T09:26:11;-3.66;66.79
75683;HTU21D;64295;44.772;39.872;2024-01-10T09:28:37;-3.70;66.87
75683;HTU21D;64295;44.772;39.872;2024-01-10T09:31:03;-3.82;67.01
75683;HTU21D;64295;44.772;39.872;2024-01-10T09:33:29;-3.95;67.36
75683;HTU21D;64295;44.772;39.872;2024-01-10T09:35:55;-3.89;67.59
75683;HTU21D;64295;44.772;39.872;2024-01-10T09:38:21;-3.71;67.35
75683;HTU21D;64295;44.772;39.872;2024-01-10T09:40:47;-3.74;67.10
75683;HTU21D;64295;44.772;39.872;2024-01-10T09:43:13;-3.81;67.34
75683;HTU21D;64295;44.772;39.872;2024-01-10T09:45:46;-4.01;67.58
75683;HTU21D;64295;44.772;39.872;2024-01-10T09:48:14;-4.10;67.89
75683;HTU21D;64295;44.772;39.872;2024-01-10T09:50:41;-4.14;67.84
75683;HTU21D;64295;44.772;39.872;2024-01-10T09:53:07;-4.26;67.81
75683;HTU21D;64295;44.772;39.872;2024-01-10T09:55:37;-4.40;68.13
75683;HTU21D;64295;44.772;39.872;2024-01-10T09:58:07;-4.46;68.25
75683;HTU21D;64295;44.772;39.872;2024-01-10T10:00:36;-4.50;68.42
75683;HTU21D;64295;44.772;39.872;2024-01-10T10:03:10;-4.55;68.41
75683;HTU21D;64295;44.772;39.872;2024-01-10T10:05:38;-4.56;68.59
75683;HTU21D;64295;44.772;39.872;2024-01-10T10:08:09;-4.26;68.42
75683;HTU21D;64295;44.772;39.872;2024-01-10T10:10:35;-4.02;67.84
75683;HTU21D;64295;44.772;39.872;2024-01-10T10:13:01;-4.07;67.61
75683;HTU21D;64295;44.772;39.872;2024-01-10T10:15:28;-4.23;67.62
75683;HTU21D;64295;44.772;39.872;2024-01-10T10:17:54;-4.27;68.01
75683;HTU21D;64295;44.772;39.872;2024-01-10T10:20:28;-4.08;68.04
75683;HTU21D;64295;44.772;39.872;2024-01-10T10:23:05;-4.07;68.09
75683;HTU21D;64295;44.772;39.872;2024-01-10T10:25:35;-3.55;67.18
75683;HTU21D;64295;44.772;39.872;2024-01-10T10:28:03;-3.75;67.08
75683;HTU21D;64295;44.772;39.872;2024-01-10T10:30:30;-3.79;67.61
75683;HTU21D;64295;44.772;39.872;2024-01-10T10:32:56;-3.74;67.56
75683;HTU21D;64295;44.772;39.872;2024-01-10T10:35:22;-3.92;67.46
75683;HTU21D;64295;44.772;39.872;2024-01-10T10:37:50;-3.96;67.91
75683;HTU21D;64295;44.772;39.872;2024-01-10T10:40:17;-3.87;67.78
75683;HTU21D;64295;44.772;39.872;2024-01-10T10:42:46;-3.92;67.81
75683;HTU21D;64295;44.772;39.872;2024-01-10T10:45:18;-3.90;67.69
75683;HTU21D;64295;44.772;39.872;2024-01-10T10:47:49;-3.89;67.88
75683;HTU21D;64295;44.772;39.872;2024-01-10T10:50:32;-3.95;67.81
75683;HTU21D;64295;44.772;39.872;2024-01-10T10:52:58;-3.89;67.98
75683;HTU21D;64295;44.772;39.872;2024-01-10T10:55:27;-3.64;68.17
75683;HTU21D;64295;44.772;39.872;2024-01-10T10:57:55;-2.74;67.14
75683;HTU21D;64295;44.772;39.872;2024-01-10T11:00:22;-2.59;66.48
75683;HTU21D;64295;44.772;39.872;2024-01-10T11:02:56;-2.36;66.58
75683;HTU21D;64295;44.772;39.872;2024-01-10T11:05:23;-2.50;66.91
75683;HTU21D;64295;44.772;39.872;2024-01-10T11:07:50;-2.76;67.25
75683;HTU21D;64295;44.772;39.872;2024-01-10T11:10:33;-2.96;68.13
75683;HTU21D;64295;44.772;39.872;2024-01-10T11:13:11;-3.12;68.45
75683;HTU21D;64295;44.772;39.872;2024-01-10T11:16:13;-3.31;68.71
75683;HTU21D;64295;44.772;39.872;2024-01-10T11:21:50;-3.41;68.92
75683;HTU21D;64295;44.772;39.872;2024-01-10T11:24:21;-3.48;68.81
75683;HTU21D;64295;44.772;39.872;2024-01-10T11:26:50;-3.39;68.71
75683;HTU21D;64295;44.772;39.872;2024-01-10T11:29:39;-3.10;68.40
75683;HTU21D;64295;44.772;39.872;2024-01-10T11:32:15;-2.84;67.91
75683;HTU21D;64295;44.772;39.872;2024-01-10T11:34:58;-2.96;67.68
75683;HTU21D;64295;44.772;39.872;2024-01-10T11:37:29;-3.25;68.13
75683;HTU21D;64295;44.772;39.872;2024-01-10T11:40:11;-3.39;68.63
75683;HTU21D;64295;44.772;39.872;2024-01-10T11:42:45;-3.42;68.61
75683;HTU21D;64295;44.772;39.872;2024-01-10T11:47:56;-3.71;68.82
75683;HTU21D;64295;44.772;39.872;2024-01-10T11:50:23;-3.85;69.22
75683;HTU21D;64295;44.772;39.872;2024-01-10T11:52:53;-3.80;69.38
75683;HTU21D;64295;44.772;39.872;2024-01-10T11:55:51;-3.72;69.11
75683;HTU21D;64295;44.772;39.872;2024-01-10T11:58:17;-3.67;69.00
75683;HTU21D;64295;44.772;39.872;2024-01-10T12:00:44;-3.54;68.91
75683;HTU21D;64295;44.772;39.872;2024-01-10T12:03:13;-3.58;68.76
75683;HTU21D;64295;44.772;39.872;2024-01-10T12:05:39;-3.52;69.35
75683;HTU21D;64295;44.772;39.872;2024-01-10T12:08:10;-3.51;68.62
75683;HTU21D;64295;44.772;39.872;2024-01-10T12:10:45;-3.49;68.86
75683;HTU21D;64295;44.772;39.872;2024-01-10T12:13:11;-3.71;68.68
75683;HTU21D;64295;44.772;39.872;2024-01-10T12:15:37;-3.93;69.04
75683;HTU21D;64295;44.772;39.872;2024-01-10T12:18:03;-4.15;69.40
75683;HTU21D;64295;44.772;39.872;2024-01-10T12:20:29;-4.15;69.56
75683;HTU21D;64295;44.772;39.872;2024-01-10T12:22:56;-4.23;69.43
75683;HTU21D;64295;44.772;39.872;2024-01-10T12:25:22;-4.26;69.67
75683;HTU21D;64295;44.772;39.872;2024-01-10T12:27:48;-4.32;69.36
75683;HTU21D;64295;44.772;39.872;2024-01-10T12:30:15;-4.52;69.52
75683;HTU21D;64295;44.772;39.872;2024-01-10T12:32:42;-4.60;69.74
75683;HTU21D;64295;44.772;39.872;2024-01-10T12:35:08;-4.52;69.64
75683;HTU21D;64295;44.772;39.872;2024-01-10T12:37:34;-4.56;69.33
75683;HTU21D;64295;44.772;39.872;2024-01-10T12:40:00;-4.53;69.38
75683;HTU21D;64295;44.772;39.872;2024-01-10T12:42:26;-4.31;69.17
75683;HTU21D;64295;44.772;39.872;2024-01-10T12:44:53;-4.26;68.75
75683;HTU21D;64295;44.772;39.872;2024-01-10T12:47:19;-3.65;68.47
75683;HTU21D;64295;44.772;39.872;2024-01-10T12:49:45;-3.71;67.91
75683;HTU21D;64295;44.772;39.872;2024-01-10T12:52:15;-3.81;68.13
75683;HTU21D;64295;44.772;39.872;2024-01-10T12:54:40;-3.85;68.44
75683;HTU21D;64295;44.772;39.872;2024-01-10T12:57:07;-3.87;68.36
75683;HTU21D;64295;44.772;39.872;2024-01-10T12:59:34;-3.96;68.49
75683;HTU21D;64295;44.772;39.872;2024-01-10T13:02:00;-3.70;68.96
75683;HTU21D;64295;44.772;39.872;2024-01-10T13:04:26;-3.42;67.97
75683;HTU21D;64295;44.772;39.872;2024-01-10T13:06:52;-3.50;68.01
75683;HTU21D;64295;44.772;39.872;2024-01-10T13:09:18;-3.52;68.10
75683;HTU21D;64295;44.772;39.872;2024-01-10T13:11:44;-3.70;68.36
75683;HTU21D;64295;44.772;39.872;2024-01-10T13:14:11;-3.94;68.82
75683;HTU21D;64295;44.772;39.872;2024-01-10T13:16:37;-3.91;69.20
75683;HTU21D;64295;44.772;39.872;2024-01-10T13:19:03;-3.87;68.93
75683;HTU21D;64295;44.772;39.872;2024-01-10T13:21:29;-3.92;69.03
75683;HTU21D;64295;44.772;39.872;2024-01-10T13:23:55;-4.08;69.10
75683;HTU21D;64295;44.772;39.872;2024-01-10T13:26:21;-4.15;69.20
75683;HTU21D;64295;44.772;39.872;2024-01-10T13:28:47;-4.31;69.33
75683;HTU21D;64295;44.772;39.872;2024-01-10T13:31:13;-4.39;69.48
75683;HTU21D;64295;44.772;39.872;2024-01-10T13:33:39;-4.42;69.46
75683;HTU21D;64295;44.772;39.872;2024-01-10T13:36:05;-4.45;69.40
75683;HTU21D;64295;44.772;39.872;2024-01-10T13:38:31;-4.56;69.51
75683;HTU21D;64295;44.772;39.872;2024-01-10T13:40:57;-4.54;69.50
75683;HTU21D;64295;44.772;39.872;2024-01-10T13:43:23;-4.50;69.52
75683;HTU21D;64295;44.772;39.872;2024-01-10T13:45:49;-4.36;69.22
75683;HTU21D;64295;44.772;39.872;2024-01-10T13:48:15;-4.34;69.01
75683;HTU21D;64295;44.772;39.872;2024-01-10T13:50:41;-4.44;69.04
75683;HTU21D;64295;44.772;39.872;2024-01-10T13:53:07;-4.42;69.13
75683;HTU21D;64295;44.772;39.872;2024-01-10T13:55:33;-4.38;69.03
75683;HTU21D;64295;44.772;39.872;2024-01-10T13:58:01;-4.38;68.92
75683;HTU21D;64295;44.772;39.872;2024-01-10T14:00:27;-4.45;69.07
75683;HTU21D;64295;44.772;39.872;2024-01-10T14:02:53;-4.30;69.14
75683;HTU21D;64295;44.772;39.872;2024-01-10T14:05:25;-3.76;68.76
75683;HTU21D;64295;44.772;39.872;2024-01-10T14:07:51;-3.68;68.61
75683;HTU21D;64295;44.772;39.872;2024-01-10T14:10:17;-3.74;68.36
75683;HTU21D;64295;44.772;39.872;2024-01-10T14:12:44;-3.83;68.58
75683;HTU21D;64295;44.772;39.872;2024-01-10T14:15:11;-3.91;68.73
75683;HTU21D;64295;44.772;39.872;2024-01-10T14:17:37;-4.04;68.83
75683;HTU21D;64295;44.772;39.872;2024-01-10T14:20:03;-4.09;69.10
75683;HTU21D;64295;44.772;39.872;2024-01-10T14:22:29;-4.02;69.10
75683;HTU21D;64295;44.772;39.872;2024-01-10T14:24:55;-3.97;68.94
75683;HTU21D;64295;44.772;39.872;2024-01-10T14:27:21;-3.97;68.85
75683;HTU21D;64295;44.772;39.872;2024-01-10T14:29:47;-3.98;68.94
75683;HTU21D;64295;44.772;39.872;2024-01-10T14:32:13;-3.91;68.84
75683;HTU21D;64295;44.772;39.872;2024-01-10T14:34:40;-3.81;68.68
75683;HTU21D;64295;44.772;39.872;2024-01-10T14:37:07;-3.80;68.58
75683;HTU21D;64295;44.772;39.872;2024-01-10T14:39:36;-3.82;68.51
75683;HTU21D;64295;44.772;39.872;2024-01-10T14:42:06;-3.91;68.68
75683;HTU21D;64295;44.772;39.872;2024-01-10T14:44:35;-3.81;68.77
75683;HTU21D;64295;44.772;39.872;2024-01-10T14:47:01;-3.77;68.61
75683;HTU21D;64295;44.772;39.872;2024-01-10T14:49:28;-3.79;68.61
75683;HTU21D;64295;44.772;39.872;2024-01-10T14:51:54;-3.83;68.57
75683;HTU21D;64295;44.772;39.872;2024-01-10T14:54:20;-3.87;68.81
75683;HTU21D;64295;44.772;39.872;2024-01-10T14:56:47;-3.84;68.73
75683;HTU21D;64295;44.772;39.872;2024-01-10T14:59:15;-3.87;68.69
75683;HTU21D;64295;44.772;39.872;2024-01-10T15:01:45;-3.92;68.82
75683;HTU21D;64295;44.772;39.872;2024-01-10T15:04:12;-3.54;68.57
75683;HTU21D;64295;44.772;39.872;2024-01-10T15:06:45;-3.58;68.35
75683;HTU21D;64295;44.772;39.872;2024-01-10T15:09:13;-3.69;68.55
75683;HTU21D;64295;44.772;39.872;2024-01-10T15:11:39;-3.77;68.65